Nearby METAR Reports

 

YSRI - Richmond (aus-Af, Australia
Distance from station: WSW 35km
Updated: 19/11/2018 01:00
Clear
Clear
 Wind from calm
Wind: Calm
Temperature: 13°C
Dew Point: 12°C
Humidity: 94%
Barometer: 1022 hPa
Clouds: Clear
Visibility: 10 km
2018/11/18 14:00 YSRI 181400Z AUTO 00000KT 9999 // NCD 13/12 Q1022
YSSY - Sydney Intl Airp, Australia
Distance from station: S 47km
Updated: 19/11/2018 01:00
Partly cloudy
Partly cloudy
 Wind from NE
Wind: NE 7 km/h
Temperature: 18°C
Dew Point: 11°C
Humidity: 64%
Barometer: 1022 hPa
Clouds: Partly cloudy
Visibility: 10 km
Cloud details: Partly cloudy 914 m
2018/11/18 14:00 YSSY 181400Z 05004KT 9999 SCT030 18/11 Q1022
YWLM - Williamtown Arp, Australia
Distance from station: NE 104km
Updated: 19/11/2018 01:00
Light rain, Overcast
Light rain, Overcast
 Wind from E
Wind: E 9 km/h
Temperature: 18°C
Dew Point: 13°C
Humidity: 73%
Barometer: 1021 hPa
Summary: Light rain
Clouds: Overcast
Visibility: 10 km
Cloud details: Mostly cloudy 1097 m
Overcast 1219 m
Overcast 1463 m
2018/11/18 14:00 YWLM 181400Z AUTO 08005KT 9999 -RA BKN036 OVC040 OVC048 18/13 Q1021
 
YSNW - Nowra (aus-Navy), Australia
Distance from station: SSW 168km
Updated: 19/11/2018 01:00
Partly cloudy
Partly cloudy
 Wind from W
Wind: W 9 km/h
Temperature: 11°C
Dew Point: 11°C
Humidity: 100%
Barometer: 1022 hPa
Clouds: Partly cloudy
Visibility: 10 km
Cloud details: Partly cloudy 1280 m
2018/11/18 14:00 YSNW 181400Z AUTO 27005KT 9999 // SCT042 11/11 Q1022
YMDG - Mudgee Arpt, Australia
Distance from station: NW 177km
Updated: 19/11/2018 01:00
Partly cloudy
Partly cloudy
 Wind from SE
Wind: SE 13 km/h
Temperature: 14°C
Dew Point: 7°C
Humidity: 63%
Barometer: 1022 hPa
Clouds: Partly cloudy
Visibility: 10 km
Cloud details: Partly cloudy 2835 m
2018/11/18 14:00 YMDG 181400Z AUTO 14007KT 9999 // SCT093 14/07 Q1022
YTRE - Taree Airport, Australia
Distance from station: NE 224km
Updated: 19/11/2018 01:00
Mostly cloudy
Mostly cloudy
 Wind from WNW
Wind: WNW 9 km/h
Temperature: 16°C
Dew Point: 14°C
Humidity: 88%
Barometer: 1021 hPa
Clouds: Mostly cloudy
Cloud details: Partly cloudy 1219 m
Partly cloudy 1372 m
Mostly cloudy 1615 m
2018/11/18 14:00 YTRE 181400Z AUTO 29005KT 280V080 //// // SCT040 SCT045 BKN053 16/14 Q1021
 
YSCB - Canberra (civ/Mi, Australia
Distance from station: SW 265km
Updated: 19/11/2018 01:00
Overcast
Overcast
 Wind from E
Wind: E 6 km/h
Temperature: 12°C
Dew Point: 8°C
Humidity: 77%
Barometer: 1023 hPa
Clouds: Overcast
Visibility: 10 km
Cloud details: Overcast 640 m
2018/11/18 14:00 YSCB 181400Z AUTO 08003KT 9999 // OVC021 12/08 Q1023
YSTW - Tamworth Airport, Australia
Distance from station: N 275km
Updated: 19/11/2018 01:00
Clear
Clear
 Wind from E
Wind: E 28 km/h
Temperature: 17°C
Dew Point: 8°C
Humidity: 56%
Barometer: 1020 hPa
Clouds: Clear
Visibility: 10 km
2018/11/18 14:00 YSTW 181400Z AUTO 09015KT 9999 // NCD 17/08 Q1020
YSDU - Dubbo, Australia
Distance from station: WNW 280km
Updated: 19/11/2018 01:00
Partly cloudy
Partly cloudy
 Wind from E
Wind: E 28 km/h
Temperature: 17°C
Dew Point: 8°C
Humidity: 56%
Barometer: 1019 hPa
Clouds: Partly cloudy
Visibility: 10 km
Cloud details: Partly cloudy 3048 m
2018/11/18 14:00 YSDU 181400Z AUTO 10015KT 9999 // SCT100 17/08 Q1019
 
YPMQ - Port Macquarie, Australia
Distance from station: NE 284km
Updated: 18/11/2018 11:16
NOT Current
Mostly cloudy
Mostly cloudy
 Wind from N
Wind: N 9 km/h
Temperature: 18°C
Dew Point: 17°C
Humidity: 94%
Barometer: 1022 hPa
Clouds: Mostly cloudy
Visibility: 10 km
Cloud details: Partly cloudy 518 m
Partly cloudy 701 m
Mostly cloudy 884 m
2018/11/18 00:16 YPMQ 180016Z AUTO 35005KT 9999 // SCT017 SCT023 BKN029 18/17 Q1022
YCBB - Coonabarabran, Australia
Distance from station: NW 300km
Updated: 19/11/2018 01:00
Overcast
Overcast
 Wind from E
Wind: E 22 km/h
Temperature: 15°C
Dew Point: 9°C
Humidity: 68%
Barometer: 1020 hPa
Clouds: Overcast
Visibility: 10 km
Cloud details: Overcast 2530 m
Overcast 3048 m
2018/11/18 14:00 YCBB 181400Z AUTO 08012KT 9999 // OVC083 OVC100 15/09 Q1020